Time;durP1;ratioP1;P1;durP2;ratioP2;P2;SDS_P1;SDS_P2;PMS_P1;PMS_P2;Temp;Humidity;BMP_temperature;BMP_pressure;BME280_temperature;BME280_humidity;BME280_pressure;Samples;Min_cycle;Max_cycle;Signal;HPM_P1;HPM_P2
2023/06/25 00:01:41;;;;;;;5.97;5.10;;;17.70;99.90;;;;;;5009726;28;20524;-72
2023/06/25 00:04:27;;;;;;;7.27;6.13;;;17.60;99.90;;;;;;5007420;28;20456;-72
2023/06/25 00:07:13;;;;;;;8.47;6.50;;;17.60;99.90;;;;;;5011610;28;20436;-72
2023/06/25 00:09:59;;;;;;;7.43;6.20;;;17.60;99.90;;;;;;5008569;28;20462;-72
2023/06/25 00:12:44;;;;;;;11.23;6.03;;;17.60;99.90;;;;;;5004288;28;20446;-72
2023/06/25 00:15:31;;;;;;;7.83;6.37;;;17.30;99.90;;;;;;5009444;28;20841;-72
2023/06/25 00:18:17;;;;;;;7.67;6.07;;;17.30;99.90;;;;;;5009777;28;22202;-71
2023/06/25 00:21:04;;;;;;;9.30;5.93;;;17.30;99.90;;;;;;5008680;28;20445;-72
2023/06/25 00:23:49;;;;;;;6.93;6.00;;;17.40;99.90;;;;;;5011374;28;20420;-72
2023/06/25 00:26:35;;;;;;;9.10;7.03;;;17.30;99.90;;;;;;5011242;28;20842;-72
2023/06/25 00:29:20;;;;;;;10.87;5.83;;;17.40;99.90;;;;;;5028762;22;20582;-85
2023/06/25 00:32:08;;;;;;;8.40;6.17;;;17.30;99.90;;;;;;5029032;28;20499;-86
2023/06/25 00:34:57;;;;;;;6.77;5.97;;;17.30;99.90;;;;;;5017435;28;20602;-85
2023/06/25 00:37:44;;;;;;;7.00;6.10;;;17.00;99.90;;;;;;5002355;28;20980;-85
2023/06/25 00:40:29;;;;;;;8.07;6.73;;;17.10;99.90;;;;;;5007634;28;20450;-86
2023/06/25 00:43:15;;;;;;;9.23;6.10;;;17.10;99.90;;;;;;5012065;28;20472;-86
2023/06/25 00:46:01;;;;;;;6.80;5.83;;;16.90;99.90;;;;;;5009102;28;20691;-86
2023/06/25 00:48:48;;;;;;;7.27;5.90;;;16.90;99.90;;;;;;5007594;28;20573;-86
2023/06/25 00:51:35;;;;;;;8.10;6.30;;;16.90;99.90;;;;;;5010404;28;20420;-86
2023/06/25 00:54:21;;;;;;;10.20;6.67;;;16.80;99.90;;;;;;5010086;28;20469;-86
2023/06/25 00:57:07;;;;;;;7.03;5.73;;;16.80;99.90;;;;;;5009772;28;20450;-86
2023/06/25 00:59:53;;;;;;;6.80;5.70;;;16.90;99.90;;;;;;5009228;28;20442;-86
2023/06/25 01:02:44;;;;;;;6.73;6.03;;;17.00;99.90;;;;;;4997592;28;20481;-86
2023/06/25 01:05:51;;;;;;;7.63;6.00;;;17.00;99.90;;;;;;5012345;28;20456;-86
2023/06/25 01:08:39;;;;;;;6.57;5.90;;;17.10;99.90;;;;;;5010933;28;20856;-85
2023/06/25 01:11:24;;;;;;;11.60;6.33;;;17.00;99.90;;;;;;5009438;28;20568;-86
2023/06/25 01:14:10;;;;;;;6.70;5.80;;;16.70;99.90;;;;;;5009213;28;21373;-85
2023/06/25 01:16:55;;;;;;;7.50;6.40;;;16.80;99.90;;;;;;5005044;28;20809;-85
2023/06/25 01:19:40;;;;;;;6.67;5.97;;;16.80;99.90;;;;;;5008890;28;20412;-86
2023/06/25 01:22:30;;;;;;;10.10;6.60;;;16.80;99.90;;;;;;5011036;28;20445;-86
2023/06/25 01:25:15;;;;;;;11.33;5.73;;;16.90;99.90;;;;;;5009953;28;20910;-86
2023/06/25 01:28:01;;;;;;;16.33;6.83;;;17.00;99.90;;;;;;5012133;28;20454;-88
2023/06/25 01:30:47;;;;;;;7.90;6.17;;;17.00;99.90;;;;;;5000596;28;20593;-88
2023/06/25 01:33:32;;;;;;;17.07;5.73;;;17.10;99.90;;;;;;5011252;28;20457;-85
2023/06/25 01:36:18;;;;;;;7.57;5.87;;;17.10;99.90;;;;;;5013998;28;20544;-87
2023/06/25 01:39:06;;;;;;;10.30;5.73;;;17.00;99.90;;;;;;5010685;28;20412;-88
2023/06/25 01:41:52;;;;;;;8.70;5.77;;;16.90;99.90;;;;;;5006242;28;20453;-88
2023/06/25 01:44:39;;;;;;;6.97;5.77;;;16.90;99.90;;;;;;5007954;28;20517;-89
2023/06/25 01:47:24;;;;;;;6.93;6.23;;;17.00;99.90;;;;;;5009094;28;20420;-84
2023/06/25 01:50:10;;;;;;;9.67;6.03;;;16.80;99.90;;;;;;5003292;28;20507;-87
2023/06/25 01:52:56;;;;;;;8.30;6.70;;;16.70;99.90;;;;;;5005472;28;20932;-86
2023/06/25 01:55:43;;;;;;;9.07;6.33;;;16.60;99.90;;;;;;5009581;28;20581;-86
2023/06/25 01:58:28;;;;;;;8.70;5.60;;;16.60;99.90;;;;;;5010511;28;20409;-86
2023/06/25 02:01:15;;;;;;;7.13;5.90;;;16.60;99.90;;;;;;5009199;28;20548;-87
2023/06/25 02:04:00;;;;;;;7.77;5.70;;;16.60;99.90;;;;;;5023219;28;20435;-84
2023/06/25 02:06:46;;;;;;;7.97;6.07;;;16.70;99.90;;;;;;5009557;28;20900;-86
2023/06/25 02:09:32;;;;;;;6.20;5.03;;;16.60;99.90;;;;;;5005744;28;21007;-86
2023/06/25 02:12:18;;;;;;;7.67;5.77;;;16.60;99.90;;;;;;5015294;28;20486;-86
2023/06/25 02:15:05;;;;;;;6.60;5.90;;;16.60;99.90;;;;;;5048156;22;20991;-70
2023/06/25 02:17:50;;;;;;;6.57;5.90;;;16.50;99.90;;;;;;5048707;28;20439;-70
2023/06/25 02:20:36;;;;;;;8.23;6.17;;;16.40;99.90;;;;;;5037613;28;20476;-69
2023/06/25 02:23:21;;;;;;;7.60;6.40;;;16.30;99.90;;;;;;5043556;28;20448;-69
2023/06/25 02:26:07;;;;;;;15.70;7.00;;;16.20;99.90;;;;;;5047208;28;20553;-69
2023/06/25 02:28:54;;;;;;;8.10;6.00;;;16.20;99.90;;;;;;5055727;22;20606;-72
2023/06/25 02:31:39;;;;;;;9.33;5.83;;;16.10;99.90;;;;;;5043291;28;20439;-71
2023/06/25 02:34:25;;;;;;;7.90;6.20;;;16.20;99.90;;;;;;5033017;28;20496;-71
2023/06/25 02:37:14;;;;;;;8.30;6.40;;;16.30;99.90;;;;;;5043796;28;20459;-72
2023/06/25 02:40:00;;;;;;;7.40;6.63;;;16.40;99.90;;;;;;5040078;28;20463;-72
2023/06/25 02:42:45;;;;;;;6.53;5.83;;;16.20;99.90;;;;;;5047918;28;20549;-72
2023/06/25 02:45:32;;;;;;;7.43;6.40;;;16.20;99.90;;;;;;5042996;28;20860;-72
2023/06/25 02:48:17;;;;;;;10.13;6.00;;;16.10;99.90;;;;;;5047760;28;20538;-72
2023/06/25 02:51:03;;;;;;;7.00;5.97;;;16.20;99.90;;;;;;5040220;28;20444;-71
2023/06/25 02:53:48;;;;;;;7.53;6.70;;;16.20;99.90;;;;;;5040988;28;20569;-72
2023/06/25 02:56:34;;;;;;;8.97;5.33;;;16.20;99.90;;;;;;5044898;28;20443;-72
2023/06/25 02:59:20;;;;;;;7.33;5.70;;;16.30;99.90;;;;;;5045968;28;20444;-72
2023/06/25 03:02:07;;;;;;;7.20;5.70;;;16.10;99.90;;;;;;5043639;28;20448;-72
2023/06/25 03:04:52;;;;;;;8.47;5.87;;;16.00;99.90;;;;;;5037115;28;20469;-72
2023/06/25 03:07:38;;;;;;;7.40;6.60;;;15.90;99.90;;;;;;5045805;28;20438;-71
2023/06/25 03:10:25;;;;;;;8.50;7.20;;;15.90;99.90;;;;;;5039709;28;20463;-71
2023/06/25 03:13:11;;;;;;;6.43;5.53;;;15.80;99.90;;;;;;5045528;28;20468;-72
2023/06/25 03:15:57;;;;;;;7.40;6.23;;;15.90;99.90;;;;;;5046847;28;20423;-71
2023/06/25 03:18:43;;;;;;;6.40;5.70;;;15.90;99.90;;;;;;5045663;28;20471;-72
2023/06/25 03:21:29;;;;;;;6.57;5.60;;;15.90;99.90;;;;;;5047170;28;20553;-72
2023/06/25 03:24:15;;;;;;;7.37;5.83;;;15.90;99.90;;;;;;5047779;28;20575;-71
2023/06/25 03:27:00;;;;;;;10.23;6.10;;;15.90;99.90;;;;;;5045402;28;21146;-71
2023/06/25 03:29:46;;;;;;;15.43;6.00;;;15.80;99.90;;;;;;5043733;28;20455;-72
2023/06/25 03:32:31;;;;;;;8.30;6.10;;;15.80;99.90;;;;;;5048159;28;20443;-71
2023/06/25 03:35:18;;;;;;;8.57;6.07;;;16.00;99.90;;;;;;5056729;28;20429;-71
2023/06/25 03:38:04;;;;;;;6.53;5.87;;;15.90;99.90;;;;;;5054310;28;20468;-72
2023/06/25 03:40:49;;;;;;;7.53;5.30;;;16.00;99.90;;;;;;5045188;28;20435;-72
2023/06/25 03:43:35;;;;;;;5.93;5.10;;;15.90;99.90;;;;;;5051150;28;20415;-71
2023/06/25 03:46:20;;;;;;;9.13;5.90;;;15.90;99.90;;;;;;5045508;28;20975;-71
2023/06/25 03:49:07;;;;;;;6.47;5.80;;;15.90;99.90;;;;;;5046821;28;20475;-72
2023/06/25 03:51:53;;;;;;;9.10;5.83;;;15.90;99.90;;;;;;5047546;28;20572;-71
2023/06/25 03:54:39;;;;;;;7.33;5.20;;;15.80;99.90;;;;;;5045072;28;20470;-71
2023/06/25 03:57:24;;;;;;;8.27;5.87;;;15.80;99.90;;;;;;5048723;28;20463;-71
2023/06/25 04:00:11;;;;;;;7.13;6.40;;;15.80;99.90;;;;;;5050775;28;20440;-71
2023/06/25 04:02:56;;;;;;;7.63;5.60;;;16.00;99.90;;;;;;5043913;28;20426;-71
2023/06/25 04:05:42;;;;;;;11.10;6.40;;;16.00;99.90;;;;;;5052167;28;20603;-71
2023/06/25 04:08:29;;;;;;;10.43;6.60;;;16.10;99.90;;;;;;5048998;28;20469;-71
2023/06/25 04:11:14;;;;;;;8.20;5.30;;;16.10;99.90;;;;;;5043923;28;20411;-71
2023/06/25 04:14:00;;;;;;;8.80;5.63;;;16.10;99.90;;;;;;5048044;28;20421;-71
2023/06/25 04:16:45;;;;;;;6.80;5.40;;;16.00;99.90;;;;;;5048141;28;20410;-71
2023/06/25 04:19:31;;;;;;;7.47;6.10;;;16.10;99.90;;;;;;5048055;28;20556;-71
2023/06/25 04:22:16;;;;;;;5.70;5.00;;;16.10;99.90;;;;;;5048658;28;20997;-71
2023/06/25 04:25:03;;;;;;;6.67;5.67;;;16.10;99.90;;;;;;5039287;28;20452;-72
2023/06/25 04:27:49;;;;;;;12.43;6.13;;;16.30;99.90;;;;;;5045138;28;20491;-72
2023/06/25 04:30:36;;;;;;;6.30;5.07;;;16.50;99.90;;;;;;5042698;28;20427;-71
2023/06/25 04:33:21;;;;;;;6.07;5.13;;;16.60;99.90;;;;;;5051061;28;20998;-72
2023/06/25 04:36:06;;;;;;;7.70;6.10;;;16.50;99.90;;;;;;5039389;28;20799;-72
2023/06/25 04:38:52;;;;;;;8.50;5.80;;;16.50;99.90;;;;;;5050502;28;20442;-72
2023/06/25 04:41:39;;;;;;;8.57;6.10;;;16.60;99.90;;;;;;5048440;28;20451;-71
2023/06/25 04:44:25;;;;;;;8.27;5.70;;;16.70;99.90;;;;;;5044149;28;20467;-71
2023/06/25 04:47:11;;;;;;;9.67;6.37;;;16.70;99.90;;;;;;5044343;28;21052;-71
2023/06/25 04:49:57;;;;;;;8.30;6.00;;;16.70;99.90;;;;;;5042246;28;20453;-71
2023/06/25 04:52:42;;;;;;;6.30;5.40;;;16.80;99.90;;;;;;5049757;28;20451;-72
2023/06/25 04:55:29;;;;;;;9.50;6.00;;;16.90;99.90;;;;;;5045382;28;20439;-71
2023/06/25 04:58:16;;;;;;;12.13;5.70;;;16.90;99.90;;;;;;5044842;28;20468;-72
2023/06/25 05:01:01;;;;;;;6.63;5.07;;;17.00;99.90;;;;;;5046963;28;20432;-71
2023/06/25 05:03:47;;;;;;;8.07;5.80;;;17.10;99.90;;;;;;5040578;28;20440;-72
2023/06/25 05:06:32;;;;;;;7.77;5.70;;;17.20;99.90;;;;;;5047942;28;20472;-72
2023/06/25 05:09:18;;;;;;;11.20;5.73;;;17.30;99.90;;;;;;5045969;28;20459;-72
2023/06/25 05:12:04;;;;;;;6.00;5.40;;;17.30;99.90;;;;;;5044565;28;20583;-72
2023/06/25 05:14:51;;;;;;;7.37;6.30;;;17.50;99.90;;;;;;5045365;28;20785;-72
2023/06/25 05:17:37;;;;;;;7.33;5.70;;;17.60;99.90;;;;;;5042184;28;20468;-71
2023/06/25 05:20:22;;;;;;;6.20;5.40;;;17.70;99.90;;;;;;5043694;28;20451;-72
2023/06/25 05:23:09;;;;;;;8.17;5.20;;;17.90;99.90;;;;;;5048666;28;20411;-72
2023/06/25 05:25:54;;;;;;;8.33;5.50;;;18.10;99.90;;;;;;5039567;28;20446;-72
2023/06/25 05:28:40;;;;;;;7.90;5.57;;;18.20;99.90;;;;;;5049196;28;20446;-71
2023/06/25 05:31:27;;;;;;;9.53;5.27;;;18.30;99.90;;;;;;5041740;28;20447;-72
2023/06/25 05:34:13;;;;;;;7.20;5.60;;;18.50;99.90;;;;;;5046081;28;20647;-72
2023/06/25 05:36:58;;;;;;;10.30;5.80;;;18.50;99.90;;;;;;5048618;28;20444;-71
2023/06/25 05:39:43;;;;;;;7.70;5.80;;;18.70;99.90;;;;;;5041349;28;20452;-72
2023/06/25 05:42:29;;;;;;;6.00;5.40;;;18.80;99.90;;;;;;5045128;28;20485;-71
2023/06/25 05:45:14;;;;;;;8.87;5.83;;;18.90;99.90;;;;;;5039468;28;20432;-72
2023/06/25 05:48:01;;;;;;;6.30;5.50;;;19.10;99.90;;;;;;5045650;28;20837;-72
2023/06/25 05:50:47;;;;;;;5.87;4.93;;;19.20;99.90;;;;;;5042374;28;20444;-71
2023/06/25 05:53:39;;;;;;;13.00;5.00;;;19.40;99.90;;;;;;5043848;28;20414;-71
2023/06/25 05:56:24;;;;;;;7.90;5.07;;;19.60;99.90;;;;;;5044311;28;20436;-72
2023/06/25 05:59:10;;;;;;;6.93;5.37;;;19.70;99.90;;;;;;5046353;28;20502;-71
2023/06/25 06:01:56;;;;;;;7.77;5.67;;;19.90;99.90;;;;;;5045882;28;20418;-72
2023/06/25 06:04:42;;;;;;;7.77;5.03;;;20.00;99.90;;;;;;5050828;28;20815;-71
2023/06/25 06:07:27;;;;;;;5.90;4.70;;;20.20;99.90;;;;;;5043451;28;20476;-71
2023/06/25 06:10:16;;;;;;;8.13;5.93;;;20.30;99.90;;;;;;5043949;28;20522;-72
2023/06/25 06:13:01;;;;;;;7.47;5.27;;;20.50;99.90;;;;;;5047479;28;20931;-72
2023/06/25 06:15:47;;;;;;;8.07;5.10;;;20.60;99.90;;;;;;5047052;28;20478;-72
2023/06/25 06:18:33;;;;;;;6.40;5.00;;;20.70;99.90;;;;;;5046358;28;20846;-72
2023/06/25 06:21:20;;;;;;;5.83;4.73;;;20.80;99.90;;;;;;5042568;28;20463;-72
2023/06/25 06:24:05;;;;;;;8.53;5.90;;;21.00;99.90;;;;;;5044520;28;20452;-72
2023/06/25 06:26:51;;;;;;;7.10;5.50;;;21.20;99.90;;;;;;5046253;28;20566;-72
2023/06/25 06:29:36;;;;;;;6.20;4.77;;;21.30;99.90;;;;;;5043477;28;20443;-72
2023/06/25 06:32:22;;;;;;;6.97;5.53;;;21.50;99.90;;;;;;5042984;28;20455;-72
2023/06/25 06:35:08;;;;;;;8.10;5.83;;;21.50;99.90;;;;;;5047367;28;20448;-72
2023/06/25 06:37:54;;;;;;;6.30;5.33;;;21.70;99.90;;;;;;5046504;28;20463;-72
2023/06/25 06:40:40;;;;;;;7.80;5.43;;;21.90;99.90;;;;;;5044281;28;20444;-71
2023/06/25 06:43:26;;;;;;;6.73;5.63;;;22.00;95.30;;;;;;5041759;28;21076;-72
2023/06/25 06:46:11;;;;;;;7.70;5.23;;;22.10;95.30;;;;;;5041010;28;20563;-72
2023/06/25 06:48:57;;;;;;;6.27;4.70;;;22.30;92.80;;;;;;5053841;28;20471;-72
2023/06/25 06:51:42;;;;;;;9.33;6.60;;;22.40;93.20;;;;;;5051167;28;20478;-71
2023/06/25 06:54:29;;;;;;;7.30;5.70;;;22.50;62.50;;;;;;5047339;28;21124;-72
2023/06/25 06:57:15;;;;;;;9.60;6.27;;;22.60;66.40;;;;;;5050419;28;20451;-72
2023/06/25 07:00:00;;;;;;;6.47;5.30;;;22.70;72.10;;;;;;5046671;28;20539;-72
2023/06/25 07:02:46;;;;;;;9.23;5.60;;;22.80;76.90;;;;;;5048872;28;20447;-72
2023/06/25 07:05:31;;;;;;;6.17;5.23;;;23.00;58.80;;;;;;5048181;28;20807;-72
2023/06/25 07:08:17;;;;;;;7.07;5.63;;;23.10;47.40;;;;;;5049411;28;20456;-72
2023/06/25 07:11:04;;;;;;;6.43;5.20;;;23.20;43.40;;;;;;5045115;28;20485;-72
2023/06/25 07:13:50;;;;;;;8.00;5.50;;;23.30;51.90;;;;;;5046683;28;20443;-72
2023/06/25 07:16:35;;;;;;;6.63;5.33;;;23.40;54.40;;;;;;5049685;28;20530;-72
2023/06/25 07:19:21;;;;;;;9.40;5.70;;;23.50;46.00;;;;;;5050811;28;20439;-72
2023/06/25 07:22:06;;;;;;;11.30;6.23;;;23.60;40.30;;;;;;5051641;28;20444;-72
2023/06/25 07:24:52;;;;;;;7.30;4.63;;;23.60;40.50;;;;;;5043305;28;20452;-72
2023/06/25 07:27:38;;;;;;;7.90;5.67;;;23.80;40.20;;;;;;5047058;28;20490;-72
2023/06/25 07:30:24;;;;;;;6.70;5.17;;;23.90;41.80;;;;;;5038724;28;20691;-72
2023/06/25 07:33:09;;;;;;;5.63;5.07;;;24.10;40.50;;;;;;5041213;28;20455;-72
2023/06/25 07:35:55;;;;;;;7.60;5.13;;;24.20;43.30;;;;;;5052750;28;20451;-72
2023/06/25 07:38:41;;;;;;;10.63;5.17;;;24.30;38.70;;;;;;5045081;28;20473;-72
2023/06/25 07:41:26;;;;;;;9.53;6.40;;;24.40;40.10;;;;;;5043710;28;20444;-72
2023/06/25 07:44:13;;;;;;;9.70;5.30;;;24.40;42.20;;;;;;5048807;28;20448;-72
2023/06/25 07:46:58;;;;;;;6.77;6.00;;;24.50;42.80;;;;;;5050648;28;20843;-72
2023/06/25 07:49:44;;;;;;;9.00;6.00;;;24.50;30.00;;;;;;5049432;28;20460;-72
2023/06/25 07:52:29;;;;;;;6.80;5.50;;;24.50;30.00;;;;;;5045287;28;20448;-73
2023/06/25 07:55:15;;;;;;;7.40;5.73;;;24.60;30.10;;;;;;5047444;28;20447;-71
2023/06/25 07:58:00;;;;;;;9.93;5.90;;;24.70;28.40;;;;;;5045200;28;20579;-71
2023/06/25 08:00:47;;;;;;;9.20;5.53;;;24.70;29.70;;;;;;5046575;28;22531;-72
2023/06/25 08:03:32;;;;;;;7.87;5.87;;;24.80;30.40;;;;;;5055741;28;20447;-71
2023/06/25 08:06:18;;;;;;;8.17;6.30;;;24.90;26.20;;;;;;5043665;28;20475;-72
2023/06/25 08:09:04;;;;;;;6.77;5.13;;;25.00;25.40;;;;;;5046842;28;20503;-72
2023/06/25 08:11:49;;;;;;;7.80;5.47;;;25.10;27.30;;;;;;5044596;28;20546;-71
2023/06/25 08:14:35;;;;;;;8.17;5.70;;;25.20;25.60;;;;;;5042238;28;20461;-72
2023/06/25 08:17:21;;;;;;;7.77;6.07;;;25.20;22.20;;;;;;5047397;28;20464;-72
2023/06/25 08:20:08;;;;;;;7.60;6.30;;;25.20;24.50;;;;;;5043212;28;20445;-72
2023/06/25 08:22:53;;;;;;;7.37;5.70;;;25.30;23.50;;;;;;5028970;28;20551;-72
2023/06/25 08:25:39;;;;;;;6.93;5.50;;;25.30;24.80;;;;;;5047382;28;20463;-72
2023/06/25 08:28:24;;;;;;;7.87;5.73;;;25.40;24.80;;;;;;5060891;22;20637;-68
2023/06/25 08:31:10;;;;;;;6.60;4.83;;;25.50;21.60;;;;;;5060018;28;21108;-68
2023/06/25 08:33:58;;;;;;;6.27;5.13;;;25.60;21.90;;;;;;5069048;28;20455;-68
2023/06/25 08:36:44;;;;;;;6.00;4.70;;;25.70;23.80;;;;;;5067815;28;20796;-69
2023/06/25 08:39:29;;;;;;;8.40;4.30;;;25.80;21.20;;;;;;5064850;28;20895;-71
2023/06/25 08:42:15;;;;;;;10.10;4.80;;;25.90;21.90;;;;;;5067544;28;20456;-70
2023/06/25 08:45:01;;;;;;;7.60;5.97;;;26.00;21.60;;;;;;5067280;28;20899;-70
2023/06/25 08:47:49;;;;;;;5.93;5.30;;;26.10;21.80;;;;;;5063113;28;20473;-71
2023/06/25 08:50:36;;;;;;;6.67;5.00;;;26.20;20.50;;;;;;5060912;28;20961;-71
2023/06/25 08:53:22;;;;;;;6.07;4.63;;;26.20;20.50;;;;;;5062026;28;20445;-71
2023/06/25 08:56:09;;;;;;;13.20;4.60;;;26.30;19.80;;;;;;5056846;28;20444;-72
2023/06/25 08:58:55;;;;;;;6.60;4.90;;;26.30;20.30;;;;;;5058210;28;20815;-69
2023/06/25 09:01:41;;;;;;;7.20;5.30;;;26.30;19.90;;;;;;5054481;28;20448;-70
2023/06/25 09:04:26;;;;;;;7.33;5.57;;;26.40;19.90;;;;;;5057052;28;20540;-70
2023/06/25 09:07:15;;;;;;;5.73;5.00;;;26.50;20.30;;;;;;5067943;28;20552;-69
2023/06/25 09:10:01;;;;;;;7.80;5.40;;;26.60;20.20;;;;;;5062486;28;20525;-70
2023/06/25 09:12:48;;;;;;;7.73;5.77;;;26.60;21.10;;;;;;5051857;28;20489;-70
2023/06/25 09:15:33;;;;;;;8.03;5.77;;;26.70;20.10;;;;;;5053887;28;20439;-69
2023/06/25 09:18:22;;;;;;;9.40;5.80;;;26.80;19.10;;;;;;5051496;28;20479;-69
2023/06/25 09:21:09;;;;;;;7.60;5.70;;;26.80;18.10;;;;;;5062445;28;20447;-69
2023/06/25 09:23:56;;;;;;;7.73;4.57;;;26.80;17.60;;;;;;5063510;28;20444;-71
2023/06/25 09:26:49;;;;;;;5.87;5.10;;;26.80;16.60;;;;;;5060677;28;20467;-70
2023/06/25 09:29:37;;;;;;;5.83;5.10;;;26.80;16.30;;;;;;5059254;28;20484;-70
2023/06/25 09:32:22;;;;;;;8.00;5.43;;;26.80;16.90;;;;;;5060232;28;20450;-70
2023/06/25 09:35:09;;;;;;;7.00;5.50;;;26.80;17.80;;;;;;5063132;28;21063;-71
2023/06/25 09:37:54;;;;;;;6.43;5.20;;;26.80;18.20;;;;;;5064233;28;20480;-70
2023/06/25 09:40:41;;;;;;;7.47;5.60;;;26.90;18.40;;;;;;5060759;28;20461;-71
2023/06/25 09:43:27;;;;;;;6.43;5.13;;;27.00;18.20;;;;;;5067697;28;20459;-70
2023/06/25 09:46:15;;;;;;;6.37;5.17;;;27.10;19.70;;;;;;5060528;28;20876;-71
2023/06/25 09:49:02;;;;;;;9.83;4.90;;;27.20;20.40;;;;;;5066058;28;20460;-71
2023/06/25 09:51:54;;;;;;;6.90;5.00;;;27.30;20.40;;;;;;5056623;28;20501;-71
2023/06/25 09:54:41;;;;;;;6.20;5.03;;;27.40;18.10;;;;;;5058828;28;20808;-70
2023/06/25 09:57:28;;;;;;;6.70;5.10;;;27.40;15.90;;;;;;5060322;28;20499;-71
2023/06/25 10:00:16;;;;;;;7.20;5.33;;;27.20;14.60;;;;;;5064312;28;20811;-71
2023/06/25 10:03:03;;;;;;;6.63;4.87;;;27.10;15.10;;;;;;5066822;28;20447;-70
2023/06/25 10:05:51;;;;;;;6.00;4.93;;;27.10;16.90;;;;;;5064109;28;20462;-71
2023/06/25 10:08:37;;;;;;;5.80;4.40;;;27.20;17.20;;;;;;5056442;28;20472;-71
2023/06/25 10:11:22;;;;;;;6.50;5.30;;;27.40;17.60;;;;;;5067244;28;20441;-71
2023/06/25 10:14:09;;;;;;;6.80;5.63;;;27.50;15.50;;;;;;5065242;28;20919;-71
2023/06/25 10:16:56;;;;;;;8.10;5.77;;;27.60;17.00;;;;;;5065433;28;20805;-71
2023/06/25 10:19:52;;;;;;;6.67;5.57;;;27.60;16.00;;;;;;5062919;28;20462;-70
2023/06/25 10:22:38;;;;;;;5.70;4.90;;;27.70;16.80;;;;;;5061137;28;20465;-70
2023/06/25 10:25:28;;;;;;;6.93;5.87;;;27.90;16.00;;;;;;5068055;28;20983;-71
2023/06/25 10:28:14;;;;;;;5.90;4.80;;;28.00;14.80;;;;;;5063716;28;20471;-71
2023/06/25 10:31:12;;;;;;;8.17;5.00;;;28.00;13.90;;;;;;5070244;28;20440;-71
2023/06/25 10:34:05;;;;;;;7.77;5.63;;;28.10;14.50;;;;;;5064342;28;20468;-71
2023/06/25 10:36:51;;;;;;;6.17;4.37;;;28.00;16.10;;;;;;5065809;28;20803;-71
2023/06/25 10:39:37;;;;;;;6.57;5.27;;;28.00;16.30;;;;;;5058333;28;20837;-70
2023/06/25 10:42:23;;;;;;;6.10;5.07;;;28.00;13.20;;;;;;5056391;28;21181;-71
2023/06/25 10:45:08;;;;;;;5.40;4.43;;;27.90;15.80;;;;;;5064775;28;20474;-70
2023/06/25 10:48:04;;;;;;;6.83;5.33;;;27.90;13.90;;;;;;5066155;28;21043;-71
2023/06/25 10:50:51;;;;;;;6.20;4.73;;;27.90;13.30;;;;;;5063902;28;21003;-68
2023/06/25 10:53:37;;;;;;;8.07;5.67;;;28.00;15.60;;;;;;5072781;28;21068;-68
2023/06/25 10:56:23;;;;;;;8.00;6.50;;;28.30;16.20;;;;;;5065152;28;20508;-69
2023/06/25 10:59:08;;;;;;;22.10;20.40;;;28.50;14.40;;;;;;5067587;28;20536;-68
2023/06/25 11:01:54;;;;;;;8.40;6.20;;;28.70;13.90;;;;;;5066682;28;20445;-68
2023/06/25 11:04:41;;;;;;;24.13;8.00;;;28.90;14.80;;;;;;5068697;28;20531;-69
2023/06/25 11:07:26;;;;;;;716.53;639.13;;;29.50;12.90;;;;;;5054553;28;20874;-68
2023/06/25 11:10:13;;;;;;;41.97;37.77;;;29.90;12.00;;;;;;5056097;28;20582;-68
2023/06/25 11:12:58;;;;;;;18.10;15.20;;;30.10;13.80;;;;;;5053506;28;20455;-69
2023/06/25 11:15:44;;;;;;;93.27;59.73;;;30.20;12.60;;;;;;5057186;28;20458;-68
